createdAt,value
2022-12-26T00:03:03.683Z,92680.77
2022-12-26T00:11:27.255Z,92675.84
2022-12-26T00:19:50.207Z,92690.27
2022-12-26T00:28:12.993Z,92714.38
2022-12-26T00:36:35.901Z,92726.83
2022-12-26T00:44:58.764Z,92737.23
2022-12-26T00:53:22.645Z,92760.98
2022-12-26T01:01:45.619Z,92763.48
2022-12-26T01:10:12.070Z,92756.34
2022-12-26T01:18:35.862Z,92758.00
2022-12-26T01:26:58.617Z,92767.55
2022-12-26T01:35:23.425Z,92768.59
2022-12-26T01:44:37.952Z,92777.23
2022-12-26T01:53:05.437Z,92774.34
2022-12-26T02:01:31.953Z,92786.44
2022-12-26T02:09:55.304Z,92800.19
2022-12-26T02:18:18.156Z,92799.20
2022-12-26T02:26:59.823Z,92800.87
2022-12-26T02:35:43.296Z,92812.39
2022-12-26T02:44:42.836Z,92832.45
2022-12-26T02:53:49.722Z,92826.48
2022-12-26T03:02:47.152Z,92795.30
2022-12-26T03:11:29.512Z,92788.63
2022-12-26T03:20:01.722Z,92774.15
2022-12-26T03:28:25.979Z,92760.23
2022-12-26T03:37:48.889Z,92741.61
2022-12-26T03:46:49.103Z,92733.84
2022-12-26T03:55:56.916Z,92730.80
2022-12-26T04:04:40.966Z,92741.74
2022-12-26T04:13:25.571Z,92752.05
2022-12-26T04:22:30.201Z,92781.15
2022-12-26T04:31:18.173Z,92788.86
2022-12-26T04:40:04.398Z,92772.73
2022-12-26T04:48:45.986Z,92750.40
2022-12-26T04:57:08.894Z,92743.91
2022-12-26T05:05:57.062Z,92752.13
2022-12-26T05:14:19.967Z,92769.40
2022-12-26T05:23:03.952Z,92776.98
2022-12-26T05:31:32.901Z,92782.35
2022-12-26T05:39:58.039Z,92787.80
2022-12-26T05:48:20.929Z,92792.27
2022-12-26T05:56:49.152Z,92806.30
2022-12-26T06:05:12.638Z,92817.11
2022-12-26T06:13:36.284Z,92830.64
2022-12-26T06:21:59.045Z,92854.39
2022-12-26T06:30:21.939Z,92864.85
2022-12-26T06:38:45.691Z,92882.69
2022-12-26T06:47:09.128Z,92906.27
2022-12-26T06:55:31.989Z,92932.25
2022-12-26T07:03:55.602Z,92928.67
2022-12-26T07:12:21.904Z,92919.80
2022-12-26T07:20:45.104Z,92916.50
2022-12-26T07:29:10.605Z,92917.17
2022-12-26T07:37:33.483Z,92937.59
2022-12-26T07:45:57.945Z,92970.05
2022-12-26T07:54:20.964Z,92982.60
2022-12-26T08:02:43.925Z,92993.81
2022-12-26T08:11:09.298Z,93003.81
2022-12-26T08:19:32.234Z,93020.34
2022-12-26T08:27:55.710Z,93027.64
2022-12-26T08:36:19.301Z,93060.98
2022-12-26T08:44:42.342Z,93100.33
2022-12-26T08:53:06.949Z,93185.55
2022-12-26T09:01:31.603Z,93266.06
2022-12-26T09:09:54.489Z,93293.83
2022-12-26T09:18:17.639Z,93319.21
2022-12-26T09:26:41.625Z,93356.84
2022-12-26T09:35:05.252Z,93383.96
2022-12-26T09:43:50.046Z,93399.26
2022-12-26T09:52:19.444Z,93398.89
2022-12-26T10:01:11.386Z,93404.15
2022-12-26T10:10:05.989Z,93433.21
2022-12-26T10:19:28.723Z,93448.61
2022-12-26T10:28:01.361Z,93461.15
2022-12-26T10:36:33.502Z,93473.41
2022-12-26T10:44:58.408Z,93509.85
2022-12-26T10:53:21.463Z,93567.28
2022-12-26T11:01:47.755Z,93630.44
2022-12-26T11:10:19.840Z,93679.43
2022-12-26T11:18:52.271Z,93712.36
2022-12-26T11:27:24.257Z,93772.55
2022-12-26T11:35:56.630Z,93836.39
2022-12-26T11:44:30.709Z,93881.75
2022-12-26T11:53:07.310Z,93925.02
2022-12-26T12:01:30.311Z,93980.16
2022-12-26T12:10:03.473Z,94040.38
2022-12-26T12:18:49.032Z,94107.48
2022-12-26T12:27:37.831Z,94180.11
2022-12-26T12:36:06.589Z,94239.50
2022-12-26T12:44:56.704Z,94282.29
2022-12-26T12:53:48.472Z,94323.33
2022-12-26T13:02:20.917Z,94376.70
2022-12-26T13:10:52.324Z,94444.06
2022-12-26T13:19:45.271Z,94499.04
2022-12-26T13:28:19.114Z,94552.63
2022-12-26T13:36:49.396Z,94579.63
2022-12-26T13:45:37.358Z,94584.65
2022-12-26T13:54:10.849Z,94546.32
2022-12-26T14:03:19.635Z,94463.17
2022-12-26T14:11:56.174Z,94393.64
2022-12-26T14:20:24.884Z,94334.60
2022-12-26T14:29:00.269Z,94256.46
2022-12-26T14:37:43.799Z,94168.13
2022-12-26T14:46:32.891Z,94066.10
2022-12-26T14:54:56.056Z,93965.32
2022-12-26T15:03:25.621Z,93887.05
2022-12-26T15:11:51.459Z,93834.95
2022-12-26T15:20:48.734Z,93761.95
2022-12-26T15:29:48.935Z,93744.80
2022-12-26T15:38:21.351Z,93813.67
2022-12-26T15:47:04.039Z,93913.02
2022-12-26T15:55:54.074Z,94001.16
2022-12-26T16:04:32.859Z,94085.85
2022-12-26T16:13:14.850Z,94141.64
2022-12-26T16:21:58.003Z,94193.14
2022-12-26T16:30:26.104Z,94232.80
2022-12-26T16:38:50.524Z,94266.10
2022-12-26T16:47:15.358Z,94284.93
2022-12-26T16:55:44.878Z,94311.54
2022-12-26T17:04:18.462Z,94328.27
2022-12-26T17:12:41.490Z,94354.31
2022-12-26T17:21:32.387Z,94377.75
2022-12-26T17:30:01.030Z,94389.11
2022-12-26T17:38:27.871Z,94394.41
2022-12-26T17:46:51.184Z,94394.32
2022-12-26T17:55:26.878Z,94408.61
2022-12-26T18:03:52.976Z,94434.11
2022-12-26T18:12:17.617Z,94449.33
2022-12-26T18:20:40.418Z,94471.16
2022-12-26T18:29:04.090Z,94485.35
2022-12-26T18:37:29.098Z,94497.84
2022-12-26T18:45:53.296Z,94517.17
2022-12-26T18:54:24.685Z,94523.98
2022-12-26T19:02:48.172Z,94526.35
2022-12-26T19:11:15.020Z,94531.89
2022-12-26T19:19:37.897Z,94534.66
2022-12-26T19:28:00.736Z,94528.12
2022-12-26T19:36:23.586Z,94541.63
2022-12-26T19:44:46.629Z,94551.66
2022-12-26T19:53:09.477Z,94555.16
2022-12-26T20:01:35.899Z,94561.08
2022-12-26T20:09:59.275Z,94572.92
2022-12-26T20:18:23.107Z,94575.77
2022-12-26T20:26:46.158Z,94583.41
2022-12-26T20:35:09.417Z,94590.48
2022-12-26T20:43:32.725Z,94583.41
2022-12-26T20:51:55.579Z,94579.55
2022-12-26T21:00:18.568Z,94570.20
2022-12-26T21:08:46.810Z,94560.98
2022-12-26T21:17:09.740Z,94552.40
2022-12-26T21:25:33.628Z,94524.52
2022-12-26T21:33:59.483Z,94485.91
2022-12-26T21:42:22.261Z,94455.63
2022-12-26T21:50:45.897Z,94416.05
2022-12-26T21:59:28.677Z,94378.27
2022-12-26T22:07:57.702Z,94353.96
2022-12-26T22:16:20.593Z,94347.73
2022-12-26T22:24:43.532Z,94334.21
2022-12-26T22:33:06.372Z,94294.70
2022-12-26T22:41:29.936Z,94230.52
2022-12-26T22:49:52.792Z,94185.73
2022-12-26T22:58:17.965Z,94156.71
2022-12-26T23:06:42.375Z,94130.02
2022-12-26T23:15:06.664Z,94092.64
2022-12-26T23:23:29.708Z,94048.41
2022-12-26T23:31:52.620Z,93994.27
2022-12-26T23:40:19.649Z,93942.75
2022-12-26T23:48:42.969Z,93876.51
2022-12-26T23:57:06.030Z,93816.30
